Time;durP1;ratioP1;P1;durP2;ratioP2;P2;SDS_P1;SDS_P2;PMS_P1;PMS_P2;Temp;Humidity;BMP_temperature;BMP_pressure;BME280_temperature;BME280_humidity;BME280_pressure;Samples;Min_cycle;Max_cycle;Signal;HPM_P1;HPM_P2
2022/06/18 00:02:15;;;;;;;0.73;0.73;;;14.30;99.90;;;;;;5136764;27;20227;-73
2022/06/18 00:04:42;;;;;;;0.22;0.22;;;14.30;99.90;;;;;;5135366;27;20203;-73
2022/06/18 00:07:11;;;;;;;0.30;0.30;;;14.30;99.90;;;;;;5136637;27;20190;-74
2022/06/18 00:09:42;;;;;;;0.20;0.20;;;14.30;99.90;;;;;;5115588;28;20278;-73
2022/06/18 00:15:30;;;;;;;0.20;0.20;;;14.30;99.90;;;;;;5115879;28;20226;-73
2022/06/18 00:17:56;;;;;;;1.35;0.80;;;14.40;99.90;;;;;;5110159;28;20207;-74
2022/06/18 00:20:25;;;;;;;0.20;0.20;;;14.30;99.90;;;;;;5131982;27;20679;-73
2022/06/18 00:22:53;;;;;;;0.17;0.17;;;14.30;99.90;;;;;;5136314;27;20222;-73
2022/06/18 00:25:35;;;;;;;1.88;1.05;;;14.30;99.90;;;;;;5136436;27;20191;-73
2022/06/18 00:28:01;;;;;;;0.45;0.45;;;14.30;99.90;;;;;;5134754;27;20730;-75
2022/06/18 00:30:29;;;;;;;0.30;0.30;;;14.30;99.90;;;;;;5135902;27;20183;-74
2022/06/18 00:32:55;;;;;;;0.30;0.30;;;14.30;99.90;;;;;;5136565;27;20604;-73
2022/06/18 00:35:21;;;;;;;0.50;0.50;;;14.30;99.90;;;;;;5136046;27;20214;-72
2022/06/18 00:37:53;;;;;;;0.30;0.30;;;14.30;99.90;;;;;;5136132;27;20189;-71
2022/06/18 00:40:27;;;;;;;0.63;0.60;;;14.30;99.90;;;;;;5136029;27;20179;-71
2022/06/18 00:42:56;;;;;;;0.45;0.45;;;14.30;99.90;;;;;;5135822;27;20251;-74
2022/06/18 00:45:27;;;;;;;0.40;0.40;;;14.30;99.90;;;;;;5134213;27;20195;-74
2022/06/18 00:48:13;;;;;;;0.20;0.20;;;14.30;99.90;;;;;;5135055;27;20213;-73
2022/06/18 00:50:55;;;;;;;0.38;0.38;;;14.30;99.90;;;;;;5107289;28;20215;-73
2022/06/18 00:53:44;;;;;;;0.30;0.30;;;14.30;99.90;;;;;;5125938;27;20327;-72
2022/06/18 00:56:19;;;;;;;0.20;0.20;;;14.30;99.90;;;;;;5134440;27;20190;-73
2022/06/18 00:58:45;;;;;;;0.43;0.43;;;14.40;99.90;;;;;;5135494;27;20699;-73
2022/06/18 01:01:16;;;;;;;0.20;0.20;;;14.30;99.90;;;;;;5135909;27;20191;-73
2022/06/18 01:03:46;;;;;;;0.40;0.38;;;14.40;99.90;;;;;;5132407;27;20239;-73
2022/06/18 01:06:15;;;;;;;0.63;0.63;;;14.40;99.90;;;;;;5114442;28;20565;-74
2022/06/18 01:08:41;;;;;;;1.17;0.55;;;14.40;99.90;;;;;;5114131;28;20200;-75
2022/06/18 01:11:19;;;;;;;0.55;0.55;;;14.40;99.90;;;;;;5113515;28;20195;-75
2022/06/18 01:13:45;;;;;;;0.30;0.30;;;14.40;99.90;;;;;;5114700;28;20673;-73
2022/06/18 01:16:11;;;;;;;0.93;0.43;;;14.40;99.90;;;;;;5128076;27;20191;-73
2022/06/18 01:18:38;;;;;;;0.30;0.30;;;14.40;99.90;;;;;;5133679;27;20209;-75
2022/06/18 01:21:25;;;;;;;1.40;1.30;;;14.40;99.90;;;;;;5135093;27;20190;-74
2022/06/18 01:23:57;;;;;;;0.68;0.68;;;14.40;99.90;;;;;;5134808;27;20559;-74
2022/06/18 01:26:23;;;;;;;0.73;0.73;;;14.40;99.90;;;;;;5133808;27;20194;-75
2022/06/18 01:28:48;;;;;;;0.75;0.63;;;14.40;99.90;;;;;;5134710;27;20298;-75
2022/06/18 01:31:14;;;;;;;0.40;0.40;;;14.40;99.90;;;;;;5134470;27;20274;-75
2022/06/18 01:33:40;;;;;;;1.23;1.05;;;14.40;99.90;;;;;;5134680;27;20298;-76
2022/06/18 01:36:09;;;;;;;0.55;0.55;;;14.40;99.90;;;;;;5133828;27;20203;-75
2022/06/18 01:38:40;;;;;;;1.13;0.88;;;14.50;99.90;;;;;;5134280;27;20244;-75
2022/06/18 01:44:09;;;;;;;3.28;1.15;;;14.50;99.90;;;;;;5134616;27;20201;-75
2022/06/18 01:46:37;;;;;;;1.25;0.98;;;14.50;99.90;;;;;;5134447;27;20195;-75
2022/06/18 01:49:06;;;;;;;1.27;0.88;;;14.40;99.90;;;;;;5133354;27;20645;-73
2022/06/18 01:51:38;;;;;;;1.23;1.02;;;14.50;99.90;;;;;;5132648;27;20226;-74
2022/06/18 01:54:14;;;;;;;0.45;0.45;;;14.40;99.90;;;;;;5132789;27;20226;-74
2022/06/18 01:56:46;;;;;;;0.43;0.43;;;14.50;99.90;;;;;;5134118;27;20190;-73
2022/06/18 01:59:14;;;;;;;1.02;0.93;;;14.50;99.90;;;;;;5134662;27;20201;-75
2022/06/18 02:01:46;;;;;;;0.55;0.50;;;14.50;99.90;;;;;;5132274;27;20701;-74
2022/06/18 02:04:14;;;;;;;1.67;1.42;;;14.50;99.90;;;;;;5132314;27;20679;-73
2022/06/18 02:06:40;;;;;;;0.73;0.73;;;14.50;99.90;;;;;;5132278;27;20663;-74
2022/06/18 02:09:12;;;;;;;0.63;0.60;;;14.40;99.90;;;;;;5134010;27;20278;-74
2022/06/18 02:11:39;;;;;;;0.45;0.45;;;14.40;99.90;;;;;;5133189;27;20199;-74
2022/06/18 02:14:07;;;;;;;1.80;1.40;;;14.40;99.90;;;;;;5133371;27;20702;-74
2022/06/18 02:16:43;;;;;;;1.70;1.48;;;14.40;99.90;;;;;;5133156;27;20528;-75
2022/06/18 02:19:13;;;;;;;2.25;1.77;;;14.50;99.90;;;;;;5133511;27;20186;-75
2022/06/18 02:21:43;;;;;;;1.08;1.02;;;14.40;99.90;;;;;;5132127;27;20206;-74
2022/06/18 02:24:10;;;;;;;1.27;1.08;;;14.50;99.90;;;;;;5131958;27;20195;-75
2022/06/18 02:26:40;;;;;;;1.15;0.90;;;14.40;99.90;;;;;;5131920;27;20216;-74
2022/06/18 02:29:08;;;;;;;2.33;1.60;;;14.40;99.90;;;;;;5133323;27;20186;-74
2022/06/18 02:31:35;;;;;;;6.00;1.60;;;14.40;99.90;;;;;;5132989;27;20534;-74
2022/06/18 02:34:04;;;;;;;0.93;0.50;;;14.50;99.90;;;;;;5132020;27;20280;-74
2022/06/18 02:36:37;;;;;;;3.22;1.85;;;14.50;99.90;;;;;;5133255;27;20638;-75
2022/06/18 02:39:11;;;;;;;0.50;0.50;;;14.50;99.90;;;;;;5133400;27;20688;-74
2022/06/18 02:41:40;;;;;;;2.42;1.20;;;14.50;99.90;;;;;;5131373;27;20189;-72
2022/06/18 02:44:06;;;;;;;1.10;1.00;;;14.50;99.90;;;;;;5132938;27;20186;-73
2022/06/18 02:46:32;;;;;;;0.88;0.88;;;14.40;99.90;;;;;;5131200;27;20198;-73
2022/06/18 02:49:02;;;;;;;2.63;1.65;;;14.50;99.90;;;;;;5127980;27;20685;-73
2022/06/18 02:51:30;;;;;;;1.17;1.10;;;14.50;99.90;;;;;;5118033;27;20227;-73
2022/06/18 02:53:57;;;;;;;0.55;0.55;;;14.50;99.90;;;;;;5114097;27;20263;-74
2022/06/18 02:56:23;;;;;;;1.67;1.27;;;14.50;99.90;;;;;;5136192;27;20608;-72
2022/06/18 02:58:49;;;;;;;1.55;1.15;;;14.50;99.90;;;;;;5153540;27;20269;-73
2022/06/18 03:01:20;;;;;;;0.85;0.85;;;14.50;99.90;;;;;;5124877;27;20247;-74
2022/06/18 03:03:49;;;;;;;1.83;1.65;;;14.50;99.90;;;;;;5152939;27;20242;-74
2022/06/18 03:06:17;;;;;;;1.90;1.67;;;14.50;99.90;;;;;;5153337;27;20189;-73
2022/06/18 03:08:46;;;;;;;6.45;1.33;;;14.50;99.90;;;;;;5138597;27;20691;-74
2022/06/18 03:13:56;;;;;;;1.75;1.02;;;14.60;99.90;;;;;;5132470;27;20206;-73
2022/06/18 03:16:22;;;;;;;1.73;1.60;;;14.50;99.90;;;;;;5113760;27;20190;-72
2022/06/18 03:18:51;;;;;;;0.90;0.90;;;14.60;99.90;;;;;;5132731;27;20236;-73
2022/06/18 03:21:39;;;;;;;2.92;1.83;;;14.60;99.90;;;;;;5132506;27;20560;-73
2022/06/18 03:24:05;;;;;;;1.23;0.95;;;14.70;99.90;;;;;;5132503;28;20194;-73
2022/06/18 03:26:31;;;;;;;2.03;1.58;;;14.70;99.90;;;;;;5132279;28;20255;-73
2022/06/18 03:28:57;;;;;;;1.17;1.10;;;14.70;99.90;;;;;;5132395;28;20201;-72
2022/06/18 03:31:24;;;;;;;3.05;1.33;;;14.70;99.90;;;;;;5113793;28;20237;-73
2022/06/18 03:33:50;;;;;;;1.42;1.15;;;14.70;99.90;;;;;;5132426;27;20206;-72
2022/06/18 03:36:18;;;;;;;2.10;1.50;;;14.80;99.90;;;;;;5136446;27;20190;-72
2022/06/18 03:38:44;;;;;;;0.93;0.90;;;14.80;99.90;;;;;;5118111;27;20186;-73
2022/06/18 03:41:12;;;;;;;2.95;2.10;;;14.80;99.90;;;;;;5139469;27;20285;-73
2022/06/18 03:43:38;;;;;;;0.60;0.60;;;14.80;99.90;;;;;;5138329;27;20194;-73
2022/06/18 03:46:08;;;;;;;4.15;1.35;;;14.80;99.90;;;;;;5157075;27;20194;-73
2022/06/18 03:48:45;;;;;;;6.35;1.50;;;14.80;99.90;;;;;;5137968;27;20202;-73
2022/06/18 03:51:12;;;;;;;1.50;1.40;;;14.80;99.90;;;;;;5138219;27;20224;-74
2022/06/18 03:53:38;;;;;;;4.70;1.08;;;14.80;99.90;;;;;;5156571;27;20278;-72
2022/06/18 03:56:04;;;;;;;1.48;0.95;;;14.80;99.90;;;;;;5157324;27;20266;-73
2022/06/18 03:58:30;;;;;;;4.90;1.85;;;14.70;99.90;;;;;;5138020;27;20202;-73
2022/06/18 04:00:56;;;;;;;1.30;1.20;;;14.80;99.90;;;;;;5156862;27;20197;-73
2022/06/18 04:03:22;;;;;;;2.30;2.10;;;14.70;99.90;;;;;;5137683;27;20399;-73
2022/06/18 04:05:48;;;;;;;1.50;1.35;;;14.70;99.90;;;;;;5156690;27;20186;-72
2022/06/18 04:08:17;;;;;;;1.58;1.48;;;14.70;99.90;;;;;;5156503;27;20209;-73
2022/06/18 04:10:43;;;;;;;4.00;2.25;;;14.70;99.90;;;;;;5156611;27;20263;-73
2022/06/18 04:13:09;;;;;;;1.70;1.60;;;14.80;99.90;;;;;;5137859;27;20241;-73
2022/06/18 04:15:35;;;;;;;1.10;1.05;;;14.80;99.90;;;;;;5156273;27;20273;-73
2022/06/18 04:18:01;;;;;;;1.95;1.48;;;14.80;99.90;;;;;;5156473;27;20660;-73
2022/06/18 04:20:30;;;;;;;1.58;1.05;;;14.80;99.90;;;;;;5156204;27;20221;-74
2022/06/18 04:22:56;;;;;;;1.08;0.90;;;14.90;99.90;;;;;;5137813;27;20194;-73
2022/06/18 04:25:22;;;;;;;1.33;1.23;;;14.90;99.90;;;;;;5156123;27;20261;-74
2022/06/18 04:27:49;;;;;;;6.70;2.25;;;14.90;99.90;;;;;;5156317;27;20190;-74
2022/06/18 04:30:17;;;;;;;4.18;2.33;;;14.90;99.90;;;;;;5156153;27;20563;-73
2022/06/18 04:32:44;;;;;;;2.08;1.33;;;14.90;99.90;;;;;;5156096;27;20270;-73
2022/06/18 04:35:12;;;;;;;1.60;1.50;;;14.90;99.90;;;;;;5156152;27;20567;-74
2022/06/18 04:37:38;;;;;;;1.85;1.60;;;14.80;99.90;;;;;;5155655;27;20217;-73
2022/06/18 04:40:05;;;;;;;3.55;2.78;;;14.90;99.90;;;;;;5155970;27;20187;-73
2022/06/18 04:42:31;;;;;;;1.77;1.45;;;14.90;99.90;;;;;;5137037;27;20607;-73
2022/06/18 04:44:57;;;;;;;6.47;2.28;;;14.80;99.90;;;;;;5155976;27;20198;-73
2022/06/18 04:47:23;;;;;;;1.98;1.83;;;14.80;99.90;;;;;;5155680;27;20548;-73
2022/06/18 04:49:50;;;;;;;8.40;2.20;;;14.80;99.90;;;;;;5142247;27;20195;-73
2022/06/18 04:52:17;;;;;;;3.03;1.88;;;14.90;99.90;;;;;;5134780;27;20309;-74
2022/06/18 04:54:44;;;;;;;1.27;1.17;;;14.90;99.90;;;;;;5135363;27;20242;-74
2022/06/18 04:57:10;;;;;;;1.27;1.17;;;14.90;99.90;;;;;;5135040;27;20183;-73
2022/06/18 04:59:38;;;;;;;1.52;1.40;;;14.90;99.90;;;;;;5116857;27;20243;-75
2022/06/18 05:02:07;;;;;;;1.30;1.20;;;14.90;99.90;;;;;;5155834;27;20190;-74
2022/06/18 05:04:33;;;;;;;0.82;0.77;;;14.80;99.90;;;;;;5136534;27;20239;-74
2022/06/18 05:06:59;;;;;;;1.65;1.17;;;14.90;99.90;;;;;;5155637;27;20186;-73
2022/06/18 05:09:25;;;;;;;7.05;1.60;;;14.90;99.90;;;;;;5136714;27;20190;-73
2022/06/18 05:11:50;;;;;;;1.15;1.05;;;14.90;99.90;;;;;;5155446;27;20210;-74
2022/06/18 05:14:16;;;;;;;1.15;1.05;;;14.90;99.90;;;;;;5136835;27;20620;-73
2022/06/18 05:16:43;;;;;;;1.98;1.35;;;14.90;99.90;;;;;;5155197;27;20265;-74
2022/06/18 05:19:31;;;;;;;0.77;0.77;;;14.90;99.90;;;;;;5155368;27;20186;-74
2022/06/18 05:21:57;;;;;;;2.05;1.48;;;14.90;99.90;;;;;;5136985;27;20604;-73
2022/06/18 05:24:23;;;;;;;2.90;1.52;;;14.90;99.90;;;;;;5154894;27;20495;-74
2022/06/18 05:26:51;;;;;;;1.10;1.10;;;15.00;99.90;;;;;;5155214;27;20186;-74
2022/06/18 05:29:18;;;;;;;2.00;1.48;;;15.10;99.90;;;;;;5155042;27;20198;-73
2022/06/18 05:31:44;;;;;;;1.45;1.35;;;15.20;99.90;;;;;;5155054;27;20684;-74
2022/06/18 05:34:10;;;;;;;1.70;1.33;;;15.30;99.90;;;;;;5136130;27;20537;-73
2022/06/18 05:36:37;;;;;;;4.40;1.58;;;15.30;99.90;;;;;;5136145;27;20562;-75
2022/06/18 05:39:04;;;;;;;1.25;0.85;;;15.40;99.90;;;;;;5136341;27;20747;-75
2022/06/18 05:41:30;;;;;;;1.17;1.08;;;15.40;99.90;;;;;;5154600;27;20660;-74
2022/06/18 05:43:57;;;;;;;1.90;1.52;;;15.50;99.90;;;;;;5136219;27;20197;-73
2022/06/18 05:46:22;;;;;;;13.90;1.85;;;15.50;99.90;;;;;;5154469;27;20731;-74
2022/06/18 05:48:48;;;;;;;2.13;1.52;;;15.50;99.90;;;;;;5131199;27;20191;-74
2022/06/18 05:51:14;;;;;;;10.40;1.65;;;15.60;99.90;;;;;;5133857;27;20226;-75
2022/06/18 05:53:40;;;;;;;3.25;1.90;;;15.70;99.90;;;;;;5115430;27;20217;-73
2022/06/18 05:56:06;;;;;;;8.68;1.60;;;15.70;99.90;;;;;;5136868;27;20550;-74
2022/06/18 05:58:32;;;;;;;1.05;0.85;;;15.80;99.90;;;;;;5153739;27;20186;-74
2022/06/18 06:00:58;;;;;;;1.48;1.38;;;15.90;99.90;;;;;;5134737;27;20182;-73
2022/06/18 06:03:24;;;;;;;1.10;0.98;;;16.00;99.90;;;;;;5153349;27;20467;-74
2022/06/18 06:05:50;;;;;;;1.33;1.02;;;16.20;99.90;;;;;;5135881;27;20201;-75
2022/06/18 06:08:15;;;;;;;1.67;1.58;;;16.30;99.90;;;;;;5134981;27;20194;-74
2022/06/18 06:13:27;;;;;;;1.23;1.13;;;16.80;99.90;;;;;;5155120;27;20309;-78
2022/06/18 06:15:54;;;;;;;1.15;1.05;;;17.50;99.90;;;;;;5138103;27;20198;-77
2022/06/18 06:18:22;;;;;;;1.45;1.27;;;18.20;99.90;;;;;;5155933;27;20190;-79
2022/06/18 06:20:51;;;;;;;0.75;0.70;;;18.80;99.90;;;;;;5137178;27;20201;-77
2022/06/18 06:23:17;;;;;;;1.73;1.55;;;19.20;99.90;;;;;;5137925;27;20201;-80
2022/06/18 06:25:44;;;;;;;4.13;2.30;;;19.40;99.90;;;;;;5138118;27;20194;-79
2022/06/18 06:28:19;;;;;;;1.55;1.33;;;19.40;99.90;;;;;;5156577;27;20229;-80
2022/06/18 06:30:45;;;;;;;2.33;1.35;;;19.40;99.90;;;;;;5128106;27;20627;-79
2022/06/18 06:33:11;;;;;;;4.18;2.30;;;19.20;99.90;;;;;;5116369;27;20206;-78
2022/06/18 06:35:37;;;;;;;7.47;1.50;;;19.30;99.90;;;;;;5116643;27;20194;-79
2022/06/18 06:38:04;;;;;;;1.17;1.08;;;19.50;99.90;;;;;;5118067;27;20187;-79
2022/06/18 06:40:32;;;;;;;1.30;0.98;;;19.60;99.90;;;;;;5117059;27;20195;-80
2022/06/18 06:42:58;;;;;;;1.55;1.38;;;19.60;99.90;;;;;;5135844;27;20289;-78
2022/06/18 06:45:31;;;;;;;4.10;1.27;;;19.60;99.90;;;;;;5116247;27;20593;-79
2022/06/18 06:47:57;;;;;;;4.68;1.17;;;19.20;99.90;;;;;;5115912;27;20199;-80
2022/06/18 06:50:25;;;;;;;1.35;0.73;;;19.20;99.90;;;;;;5134809;27;20251;-79
2022/06/18 06:52:52;;;;;;;1.63;1.05;;;18.90;99.90;;;;;;5142403;27;20233;-78
2022/06/18 06:58:05;;;;;;;0.38;0.38;;;19.20;99.90;;;;;;5155357;27;20250;-78
2022/06/18 07:00:34;;;;;;;1.95;1.00;;;19.50;99.90;;;;;;5136883;27;20194;-77
2022/06/18 07:02:59;;;;;;;1.17;1.08;;;19.30;99.90;;;;;;5154751;27;20233;-78
2022/06/18 07:05:25;;;;;;;1.33;1.13;;;19.30;99.90;;;;;;5139850;27;20198;-79
2022/06/18 07:07:51;;;;;;;1.33;0.88;;;19.40;99.90;;;;;;5138735;27;20206;-76
2022/06/18 07:10:17;;;;;;;1.27;1.05;;;19.30;99.90;;;;;;5137008;27;20198;-76
2022/06/18 07:12:44;;;;;;;0.93;0.80;;;19.20;99.90;;;;;;5157029;27;20209;-76
2022/06/18 07:15:10;;;;;;;1.25;1.15;;;19.30;99.90;;;;;;5156940;27;20186;-77
2022/06/18 07:17:36;;;;;;;34.20;1.10;;;19.90;99.90;;;;;;5138236;27;20225;-79
2022/06/18 07:20:04;;;;;;;0.68;0.68;;;20.40;99.90;;;;;;5155879;27;20182;-78
2022/06/18 07:22:31;;;;;;;2.88;0.80;;;20.40;99.90;;;;;;5134756;27;20496;-78
2022/06/18 07:24:57;;;;;;;0.98;0.98;;;20.00;99.90;;;;;;5135263;27;20194;-76
2022/06/18 07:27:23;;;;;;;0.93;0.82;;;20.00;99.90;;;;;;5153169;27;20549;-78
2022/06/18 07:29:48;;;;;;;1.83;1.15;;;20.20;99.90;;;;;;5135222;27;20198;-78
2022/06/18 07:32:17;;;;;;;1.05;0.82;;;20.40;99.90;;;;;;5134883;27;20592;-77
2022/06/18 07:34:44;;;;;;;1.15;0.95;;;20.50;99.90;;;;;;5135146;27;20197;-79
2022/06/18 07:37:10;;;;;;;1.77;1.30;;;20.60;99.90;;;;;;5135007;27;20224;-80
2022/06/18 07:39:36;;;;;;;0.70;0.70;;;20.50;99.90;;;;;;5153325;27;20280;-80
2022/06/18 07:42:03;;;;;;;0.90;0.90;;;20.90;99.90;;;;;;5153442;27;20695;-80
2022/06/18 07:44:30;;;;;;;0.65;0.60;;;20.90;99.90;;;;;;5153272;27;20220;-78
2022/06/18 07:47:02;;;;;;;1.48;1.02;;;20.50;99.90;;;;;;5153357;27;20190;-77
2022/06/18 07:49:31;;;;;;;1.60;1.33;;;20.50;99.90;;;;;;5152641;27;20198;-77
2022/06/18 07:51:58;;;;;;;3.83;1.30;;;20.40;99.90;;;;;;5152773;27;20291;-77
2022/06/18 07:54:24;;;;;;;7.63;1.95;;;20.40;99.90;;;;;;5133843;27;20251;-76
2022/06/18 07:56:50;;;;;;;2.55;1.33;;;20.50;99.90;;;;;;5152778;27;20193;-76
2022/06/18 07:59:18;;;;;;;0.60;0.60;;;20.60;99.90;;;;;;5152951;27;20186;-77
2022/06/18 08:01:43;;;;;;;1.58;0.93;;;21.20;99.90;;;;;;5134768;27;20222;-75
2022/06/18 08:04:09;;;;;;;0.77;0.70;;;21.10;99.90;;;;;;5153302;27;20237;-74
2022/06/18 08:06:35;;;;;;;6.07;1.40;;;21.00;99.90;;;;;;5134058;27;20204;-76
2022/06/18 08:09:01;;;;;;;0.77;0.75;;;21.10;99.90;;;;;;5134325;27;20201;-74
2022/06/18 08:11:29;;;;;;;0.70;0.60;;;21.60;99.90;;;;;;5152550;27;20688;-77
2022/06/18 08:13:57;;;;;;;0.60;0.60;;;21.90;99.90;;;;;;5134022;27;20210;-77
2022/06/18 08:16:23;;;;;;;1.75;0.90;;;21.70;99.90;;;;;;5134212;27;20205;-77
2022/06/18 08:18:48;;;;;;;1.30;0.68;;;21.80;99.90;;;;;;5134157;27;20278;-78
2022/06/18 08:21:26;;;;;;;1.38;1.17;;;22.20;99.90;;;;;;5136283;27;20232;-79
2022/06/18 08:23:59;;;;;;;0.43;0.43;;;22.20;99.90;;;;;;5137790;27;20202;-78
2022/06/18 08:26:26;;;;;;;0.73;0.73;;;22.40;99.90;;;;;;5137578;27;20198;-77
2022/06/18 08:28:52;;;;;;;0.68;0.57;;;22.50;99.90;;;;;;5156626;27;20190;-77
2022/06/18 08:31:18;;;;;;;1.67;0.93;;;22.30;99.90;;;;;;5137890;27;20202;-77
2022/06/18 08:33:43;;;;;;;0.60;0.60;;;22.70;99.90;;;;;;5137513;27;20220;-77
2022/06/18 08:36:14;;;;;;;1.98;1.33;;;22.80;99.90;;;;;;5156348;27;20178;-77
2022/06/18 08:38:43;;;;;;;2.83;0.98;;;22.80;99.90;;;;;;5156197;27;20185;-78
2022/06/18 08:41:30;;;;;;;1.55;1.40;;;22.60;99.90;;;;;;5137405;27;20201;-77
2022/06/18 08:44:14;;;;;;;1.17;0.75;;;22.60;99.90;;;;;;5137562;27;20200;-78
2022/06/18 08:47:07;;;;;;;1.85;1.08;;;23.10;99.90;;;;;;5137537;27;20328;-77
2022/06/18 08:49:59;;;;;;;0.95;0.93;;;23.40;99.90;;;;;;5136859;27;20197;-78
2022/06/18 08:52:50;;;;;;;1.00;0.88;;;23.60;99.90;;;;;;5133411;27;20275;-78
2022/06/18 08:55:19;;;;;;;0.88;0.80;;;23.30;99.90;;;;;;5135618;27;20191;-77
2022/06/18 08:58:11;;;;;;;1.55;0.85;;;22.80;99.90;;;;;;5135061;27;20269;-78
2022/06/18 09:01:15;;;;;;;1.02;0.93;;;22.30;99.90;;;;;;5133557;27;20290;-78
2022/06/18 09:04:08;;;;;;;1.83;1.23;;;21.70;99.90;;;;;;5130300;27;20214;-79
2022/06/18 09:07:00;;;;;;;0.52;0.52;;;21.90;99.90;;;;;;5134812;27;20406;-79
2022/06/18 09:09:38;;;;;;;0.47;0.47;;;22.20;99.90;;;;;;5133423;27;20247;-77
2022/06/18 09:12:10;;;;;;;0.73;0.57;;;22.50;99.90;;;;;;5135121;27;20186;-78
2022/06/18 09:14:53;;;;;;;1.10;0.80;;;22.70;99.90;;;;;;5133327;27;20226;-77
2022/06/18 09:17:25;;;;;;;1.13;0.90;;;23.60;99.90;;;;;;5133319;27;20195;-79
2022/06/18 09:20:04;;;;;;;0.52;0.50;;;24.20;99.90;;;;;;5134879;27;20187;-77
2022/06/18 09:22:32;;;;;;;1.60;0.50;;;24.30;99.90;;;;;;5133069;27;20194;-78
2022/06/18 09:25:07;;;;;;;3.03;0.90;;;24.40;99.90;;;;;;5133383;27;20722;-77
2022/06/18 09:27:58;;;;;;;0.57;0.57;;;24.40;99.90;;;;;;5134365;27;20194;-77
2022/06/18 09:30:34;;;;;;;0.63;0.52;;;23.90;99.90;;;;;;5125193;27;20698;-78
2022/06/18 09:33:09;;;;;;;0.55;0.55;;;23.80;99.90;;;;;;5113003;28;20326;-77
2022/06/18 09:35:46;;;;;;;0.65;0.65;;;23.50;99.90;;;;;;5113629;28;20565;-78
2022/06/18 09:38:38;;;;;;;0.63;0.45;;;23.60;99.90;;;;;;5113833;28;20183;-78
2022/06/18 09:41:34;;;;;;;1.05;0.80;;;23.50;99.90;;;;;;5114683;27;20682;-77
2022/06/18 09:44:07;;;;;;;0.45;0.45;;;23.10;99.90;;;;;;5134347;27;20650;-77
2022/06/18 09:47:12;;;;;;;0.50;0.50;;;22.50;99.90;;;;;;5132534;27;20206;-77
2022/06/18 09:49:38;;;;;;;0.50;0.50;;;22.60;99.90;;;;;;5053281;28;20208;-78
2022/06/18 09:52:12;;;;;;;0.60;0.60;;;23.60;99.90;;;;;;5132336;27;20244;-78
2022/06/18 09:55:07;;;;;;;0.60;0.60;;;24.50;99.90;;;;;;5136008;27;21546;-78
2022/06/18 09:57:37;;;;;;;0.73;0.43;;;25.60;99.90;;;;;;5136172;27;20191;-78
2022/06/18 10:00:03;;;;;;;0.93;0.38;;;25.80;99.90;;;;;;5136079;27;20190;-77
2022/06/18 10:02:31;;;;;;;0.40;0.40;;;24.90;99.90;;;;;;5135597;27;20311;-78
2022/06/18 10:07:48;;;;;;;2.10;0.80;;;23.30;99.90;;;;;;5154720;27;20257;-77
2022/06/18 10:10:20;;;;;;;0.50;0.50;;;23.00;99.90;;;;;;5154473;27;20266;-77
2022/06/18 10:12:53;;;;;;;0.32;0.32;;;24.00;99.90;;;;;;5154330;27;20205;-77
2022/06/18 10:15:21;;;;;;;0.95;0.85;;;24.80;99.90;;;;;;5154048;27;20588;-78
2022/06/18 10:18:20;;;;;;;0.75;0.50;;;25.40;99.90;;;;;;5135760;27;20186;-75
2022/06/18 10:21:28;;;;;;;0.47;0.30;;;24.90;99.90;;;;;;5135704;27;20194;-78
2022/06/18 10:24:05;;;;;;;0.60;0.60;;;24.90;99.90;;;;;;5073067;28;20196;-77
2022/06/18 10:27:02;;;;;;;0.52;0.40;;;25.10;99.90;;;;;;5148082;27;20687;-77
2022/06/18 10:29:44;;;;;;;0.30;0.30;;;25.50;99.90;;;;;;5135528;27;20186;-76
2022/06/18 10:32:46;;;;;;;0.30;0.22;;;25.30;99.90;;;;;;5153829;27;20676;-77
2022/06/18 10:35:38;;;;;;;0.32;0.32;;;25.80;99.90;;;;;;5153984;27;20724;-77
2022/06/18 10:38:34;;;;;;;0.20;0.20;;;26.60;99.90;;;;;;5135277;27;20769;-76
2022/06/18 10:41:28;;;;;;;0.60;0.57;;;26.80;99.90;;;;;;5154020;27;20186;-77
2022/06/18 10:44:07;;;;;;;0.30;0.30;;;26.90;99.90;;;;;;5132980;27;20197;-76
2022/06/18 10:46:33;;;;;;;0.30;0.30;;;26.50;99.90;;;;;;5132827;27;20222;-76
2022/06/18 10:49:01;;;;;;;0.20;0.20;;;26.20;99.90;;;;;;5139046;27;20236;-76
2022/06/18 10:51:32;;;;;;;0.20;0.20;;;26.40;99.90;;;;;;5153312;27;20245;-77
2022/06/18 10:54:00;;;;;;;0.77;0.63;;;26.70;99.90;;;;;;5134877;27;20687;-76
2022/06/18 10:56:49;;;;;;;0.17;0.17;;;26.50;98.80;;;;;;5153313;27;20197;-76
2022/06/18 10:59:15;;;;;;;0.35;0.35;;;26.30;99.90;;;;;;5135015;27;20566;-76
2022/06/18 11:01:45;;;;;;;15.15;0.68;;;26.30;99.10;;;;;;5134537;27;20190;-76
2022/06/18 11:04:22;;;;;;;0.38;0.30;;;26.10;99.90;;;;;;5153419;27;20273;-77
2022/06/18 11:06:53;;;;;;;0.40;0.40;;;25.60;98.80;;;;;;5134801;27;20606;-76
2022/06/18 11:09:25;;;;;;;0.13;0.13;;;25.60;98.30;;;;;;5153227;27;20247;-76
2022/06/18 11:12:06;;;;;;;0.20;0.20;;;25.90;96.30;;;;;;5153125;27;20218;-75
2022/06/18 11:14:42;;;;;;;0.32;0.32;;;26.40;95.30;;;;;;5134369;27;20202;-76
2022/06/18 11:17:22;;;;;;;0.30;0.30;;;26.40;94.10;;;;;;5134605;27;20224;-76
2022/06/18 11:19:51;;;;;;;0.60;0.57;;;25.60;92.90;;;;;;5153170;27;20189;-76
2022/06/18 11:22:27;;;;;;;0.20;0.20;;;25.10;95.70;;;;;;5152954;27;20246;-75
2022/06/18 11:24:58;;;;;;;0.55;0.55;;;25.20;95.00;;;;;;5153173;27;20193;-75
2022/06/18 11:27:30;;;;;;;0.47;0.47;;;24.70;94.60;;;;;;5134386;27;20202;-76
2022/06/18 11:29:56;;;;;;;0.43;0.35;;;24.60;96.60;;;;;;5152993;27;20190;-76
2022/06/18 11:32:26;;;;;;;0.20;0.20;;;24.40;95.30;;;;;;5152723;27;20577;-76
2022/06/18 11:35:06;;;;;;;0.20;0.20;;;24.90;93.00;;;;;;5134447;27;20237;-76
2022/06/18 11:37:33;;;;;;;0.20;0.20;;;25.80;94.10;;;;;;5152077;27;20597;-76
2022/06/18 11:40:18;;;;;;;0.28;0.22;;;26.30;92.10;;;;;;5134420;27;20561;-76
2022/06/18 11:42:46;;;;;;;0.25;0.25;;;26.50;90.80;;;;;;5153135;27;20672;-76
2022/06/18 11:45:27;;;;;;;0.30;0.30;;;26.90;92.50;;;;;;5152954;27;20594;-75
2022/06/18 11:48:20;;;;;;;0.75;0.43;;;26.70;90.90;;;;;;5152956;27;20276;-76
2022/06/18 11:50:57;;;;;;;0.30;0.30;;;26.40;91.00;;;;;;5114026;28;20195;-76
2022/06/18 11:53:50;;;;;;;0.28;0.28;;;26.50;88.60;;;;;;5131866;28;20214;-76
2022/06/18 11:56:47;;;;;;;0.20;0.20;;;27.00;91.40;;;;;;5134978;27;20194;-75
2022/06/18 11:59:24;;;;;;;0.32;0.32;;;27.00;85.70;;;;;;5136312;27;20680;-76
2022/06/18 12:01:58;;;;;;;0.38;0.38;;;27.40;88.70;;;;;;5117718;27;20559;-76
2022/06/18 12:04:31;;;;;;;0.40;0.30;;;27.20;87.40;;;;;;5135957;27;20192;-75
2022/06/18 12:07:24;;;;;;;0.20;0.20;;;27.90;89.90;;;;;;5117688;27;20558;-76
2022/06/18 12:09:51;;;;;;;0.20;0.20;;;27.30;82.90;;;;;;5136016;27;20538;-76
2022/06/18 12:12:35;;;;;;;0.50;0.50;;;27.20;84.90;;;;;;5117486;27;20198;-75
2022/06/18 12:15:10;;;;;;;0.65;0.40;;;27.70;86.40;;;;;;5136095;27;20564;-75
2022/06/18 12:18:02;;;;;;;0.13;0.13;;;27.50;85.10;;;;;;5135694;27;20597;-76
2022/06/18 12:20:34;;;;;;;0.63;0.40;;;27.50;89.80;;;;;;5133176;27;20261;-76
2022/06/18 12:23:22;;;;;;;0.30;0.30;;;27.40;88.40;;;;;;5138040;27;20840;-76
2022/06/18 12:26:08;;;;;;;0.13;0.13;;;26.00;88.00;;;;;;5156642;27;20201;-75
2022/06/18 12:28:51;;;;;;;0.40;0.40;;;24.80;92.80;;;;;;5156241;27;20194;-76
2022/06/18 12:31:30;;;;;;;0.30;0.30;;;24.90;92.70;;;;;;5137521;27;20288;-76
2022/06/18 12:34:35;;;;;;;0.38;0.38;;;25.30;92.90;;;;;;5136734;27;20265;-76
2022/06/18 12:37:22;;;;;;;0.22;0.22;;;26.30;93.30;;;;;;5156322;27;20561;-76
2022/06/18 12:39:59;;;;;;;0.22;0.22;;;26.60;90.30;;;;;;5156173;27;20182;-76
2022/06/18 12:42:38;;;;;;;0.30;0.30;;;27.10;90.10;;;;;;5155870;27;20192;-76
2022/06/18 12:45:10;;;;;;;0.50;0.40;;;27.80;88.40;;;;;;5137684;27;20678;-76
2022/06/18 12:47:54;;;;;;;0.30;0.30;;;27.60;86.10;;;;;;5137424;27;20190;-76
2022/06/18 12:50:41;;;;;;;0.38;0.30;;;27.00;85.90;;;;;;5137106;27;20187;-76
2022/06/18 12:53:15;;;;;;;0.22;0.22;;;25.70;84.90;;;;;;5155483;27;20289;-76
2022/06/18 12:56:14;;;;;;;0.55;0.30;;;26.00;85.10;;;;;;5137361;27;20208;-75
2022/06/18 12:58:58;;;;;;;0.10;0.10;;;25.70;83.40;;;;;;5137320;27;20554;-76
2022/06/18 13:01:37;;;;;;;0.35;0.35;;;24.90;85.30;;;;;;5137068;27;20209;-76
2022/06/18 13:04:27;;;;;;;0.20;0.20;;;24.90;84.00;;;;;;5137027;27;20194;-76
2022/06/18 13:07:07;;;;;;;0.38;0.38;;;25.20;84.00;;;;;;5135751;27;20285;-76
2022/06/18 13:09:52;;;;;;;0.20;0.20;;;25.60;84.00;;;;;;5137174;27;20205;-76
2022/06/18 13:12:34;;;;;;;0.45;0.45;;;25.60;80.40;;;;;;5136885;27;20730;-76
2022/06/18 13:15:37;;;;;;;0.20;0.20;;;25.30;75.80;;;;;;5153115;27;20273;-75
2022/06/18 13:18:26;;;;;;;0.10;0.10;;;25.50;74.90;;;;;;5109479;27;20199;-76
2022/06/18 13:20:56;;;;;;;0.75;0.30;;;25.70;74.70;;;;;;5116328;27;20202;-75
2022/06/18 13:29:14;;;;;;;0.10;0.10;;;26.10;70.70;;;;;;5155905;27;20205;-75
2022/06/18 13:32:08;;;;;;;0.20;0.20;;;26.40;67.10;;;;;;5136278;27;20202;-75
2022/06/18 13:35:00;;;;;;;0.20;0.20;;;26.60;67.10;;;;;;5154929;27;20202;-75
2022/06/18 13:37:58;;;;;;;0.10;0.10;;;26.60;66.80;;;;;;5136206;27;20277;-75